Terminal Aerodrome Forecast
Issued by NWS Tallahassee, FL

Current Version | Previous Version | Text Only | Print | Product List | Glossary On
Versions: 1 2 3 4 5 6 7 8 9 10 11 12 13
000
FTUS42 KTAE 011700 RRA
TAFTLH
TAF
KTLH 011748Z 0118/0218 16013G19KT P6SM SCT050 BKN150
     FM020200 16012KT 6SM RA OVC015
     FM020700 19011KT P6SM -SHRA OVC007
     FM021100 26011KT P6SM VCSH OVC007
     FM021300 29013G18KT P6SM BKN025
     FM021500 31015G23KT P6SM SCT050=

USA.gov is the U.S. government's official web portal to all federal, state and local government web resources and services.